Time;durP1;ratioP1;P1;durP2;ratioP2;P2;SDS_P1;SDS_P2;PMS_P1;PMS_P2;Temp;Humidity;BMP_temperature;BMP_pressure;BME280_temperature;BME280_humidity;BME280_pressure;Samples;Min_cycle;Max_cycle;Signal;HPM_P1;HPM_P2
2022/06/19 00:02:19;;;;;;;3.30;2.60;;;;;;;19.14;58.56;99292.61;433529;1273;143559;-61
2022/06/19 00:12:41;;;;;;;3.40;2.40;;;;;;;19.10;58.68;99298.88;432719;1272;142061;-63
2022/06/19 00:23:03;;;;;;;3.90;2.20;;;;;;;19.00;58.89;99290.99;436069;1272;141913;-60
2022/06/19 00:33:25;;;;;;;3.00;2.70;;;;;;;18.90;59.12;99294.46;438233;1272;143087;-62
2022/06/19 00:43:58;;;;;;;2.60;2.40;;;;;;;18.82;59.59;99292.20;434338;1272;142967;-62
2022/06/19 00:54:22;;;;;;;6.50;3.10;;;;;;;18.66;59.87;99295.66;444954;1271;143619;-61
2022/06/19 01:04:49;;;;;;;2.40;2.20;;;;;;;18.44;60.45;99291.93;438819;1273;142260;-61
2022/06/19 01:15:15;;;;;;;5.50;2.60;;;;;;;18.25;61.07;99296.13;433457;1273;142391;-61
2022/06/19 01:25:39;;;;;;;3.50;2.60;;;;;;;18.06;61.64;99293.00;430430;1273;144313;-61
2022/06/19 01:36:04;;;;;;;4.90;3.60;;;;;;;17.85;62.05;99299.70;433251;1273;142603;-63
2022/06/19 01:46:29;;;;;;;5.10;2.60;;;;;;;17.78;62.18;99310.83;430407;1273;142535;-62
2022/06/19 01:56:54;;;;;;;4.20;2.70;;;;;;;17.75;62.30;99316.25;442237;1272;143161;-61
2022/06/19 02:07:20;;;;;;;4.00;2.80;;;;;;;17.62;62.76;99318.59;447342;1272;145543;-62
2022/06/19 02:17:49;;;;;;;5.70;2.90;;;;;;;17.50;63.17;99315.64;431288;1273;142283;-60
2022/06/19 02:28:13;;;;;;;3.30;3.00;;;;;;;17.38;63.42;99297.97;430119;1273;142479;-61
2022/06/19 02:38:35;;;;;;;3.20;2.60;;;;;;;17.27;63.74;99290.65;433750;1273;143425;-61
2022/06/19 02:48:56;;;;;;;4.70;3.70;;;;;;;17.17;64.30;99284.34;429901;1273;143634;-64
2022/06/19 02:59:17;;;;;;;5.00;2.90;;;;;;;17.17;64.75;99279.24;429272;1273;142824;-62
2022/06/19 03:09:39;;;;;;;3.10;2.80;;;;;;;17.41;64.84;99273.56;429996;1273;143184;-60
2022/06/19 03:20:01;;;;;;;3.10;2.50;;;;;;;17.98;64.19;99261.95;429344;1273;144076;-61
2022/06/19 03:30:23;;;;;;;3.50;2.80;;;;;;;18.81;63.20;99248.94;430173;1273;142826;-63
2022/06/19 03:40:45;;;;;;;4.00;3.10;;;;;;;19.82;61.78;99236.39;430005;1273;142721;-62
2022/06/19 03:51:08;;;;;;;2.40;2.30;;;;;;;20.87;60.14;99237.76;431485;1273;143783;-61
2022/06/19 04:01:32;;;;;;;2.80;2.40;;;;;;;23.11;57.50;99220.66;430082;1273;143068;-61
2022/06/19 04:11:53;;;;;;;1.90;1.70;;;;;;;26.20;52.86;99231.98;431715;1273;144018;-61
2022/06/19 04:22:15;;;;;;;3.20;2.20;;;;;;;28.86;48.08;99230.17;431116;1273;146609;-61
2022/06/19 04:32:37;;;;;;;4.10;1.90;;;;;;;31.30;43.38;99214.44;431197;1273;145085;-62
2022/06/19 04:42:58;;;;;;;2.40;2.00;;;;;;;33.62;39.20;99200.39;430886;1273;143141;-61
2022/06/19 04:53:20;;;;;;;4.60;1.50;;;;;;;36.06;35.48;99197.70;430784;1272;141820;-61
2022/06/19 05:03:42;;;;;;;1.90;1.80;;;;;;;38.60;32.07;99196.11;430891;1273;145233;-61
2022/06/19 05:14:04;;;;;;;3.20;1.60;;;;;;;40.56;29.04;99189.38;430017;1273;141508;-60
2022/06/19 05:24:26;;;;;;;1.20;1.10;;;;;;;42.90;26.56;99189.39;430156;1273;140889;-61
2022/06/19 05:34:48;;;;;;;1.60;1.30;;;;;;;45.34;23.56;99186.28;430583;1273;144305;-61
2022/06/19 05:45:10;;;;;;;2.00;1.90;;;;;;;46.85;21.47;99171.85;430089;1273;142007;-61
2022/06/19 05:55:32;;;;;;;1.80;1.60;;;;;;;48.52;19.63;99162.35;432608;1273;144018;-62
2022/06/19 06:05:58;;;;;;;1.30;1.20;;;;;;;50.12;17.89;99158.69;430220;1273;142522;-61
2022/06/19 06:16:21;;;;;;;2.20;1.40;;;;;;;51.19;16.64;99155.29;430301;1273;146451;-61
2022/06/19 06:26:43;;;;;;;2.00;1.60;;;;;;;51.93;15.93;99163.91;430286;1273;142266;-61
2022/06/19 06:37:06;;;;;;;3.60;1.50;;;;;;;53.35;15.04;99148.24;430158;1273;141694;-62
2022/06/19 06:47:27;;;;;;;1.90;1.80;;;;;;;54.18;14.25;99138.07;429382;1273;143389;-62
2022/06/19 06:57:49;;;;;;;3.60;3.20;;;;;;;54.82;13.51;99133.52;430226;1273;141561;-61
2022/06/19 07:08:11;;;;;;;3.90;3.60;;;;;;;56.14;13.09;99125.83;429483;1273;142913;-61
2022/06/19 07:18:33;;;;;;;5.60;5.40;;;;;;;57.57;12.29;99125.39;431759;1273;143240;-62
2022/06/19 07:28:55;;;;;;;5.00;4.70;;;;;;;56.45;11.94;99113.20;430074;1273;141364;-62
2022/06/19 07:39:23;;;;;;;5.00;4.80;;;;;;;55.55;12.25;99113.11;430289;1273;141580;-61
2022/06/19 08:00:26;;;;;;;6.30;1.70;;;;;;;49.86;14.11;99096.93;430315;1273;141689;-61
2022/06/19 08:10:50;;;;;;;3.80;1.20;;;;;;;44.10;17.24;99093.20;430907;1273;147011;-61
2022/06/19 08:21:12;;;;;;;1.80;1.20;;;;;;;41.39;19.32;99086.06;431090;1273;141832;-61
2022/06/19 08:31:34;;;;;;;3.90;1.50;;;;;;;39.59;21.01;99090.11;429932;1273;275835;-59
2022/06/19 08:42:22;;;;;;;2.50;1.30;;;;;;;38.42;22.67;99087.04;430240;1273;145083;-62
2022/06/19 08:52:59;;;;;;;3.80;1.30;;;;;;;37.61;23.32;99087.36;430812;1273;145782;-62
2022/06/19 09:05:36;;;;;;;3.20;1.40;;;;;;;36.43;24.34;99080.09;431148;1273;144677;-61
2022/06/19 09:14:27;;;;;;;11.30;1.50;;;;;;;35.98;25.30;99083.03;430875;1273;142341;-59
2022/06/19 09:25:08;;;;;;;5.20;1.90;;;;;;;35.57;25.53;99071.22;430162;1273;146817;-61
2022/06/19 09:35:34;;;;;;;3.50;1.40;;;;;;;35.07;26.45;99054.21;430441;1273;146490;-62
2022/06/19 09:46:01;;;;;;;2.50;1.40;;;;;;;34.78;26.75;99045.87;430772;1273;197153;-62
2022/06/19 09:56:32;;;;;;;2.90;1.30;;;;;;;34.64;27.01;99031.79;429714;1273;141318;-61
2022/06/19 10:06:57;;;;;;;1.80;1.50;;;;;;;34.30;27.18;99016.54;429716;1273;142520;-61
2022/06/19 10:17:24;;;;;;;1.70;1.40;;;;;;;34.04;27.50;99018.74;429377;1273;143698;-60
2022/06/19 10:27:54;;;;;;;4.40;2.30;;;;;;;33.71;27.79;99011.48;433242;1273;141093;-61
2022/06/19 10:38:40;;;;;;;5.30;1.70;;;;;;;33.39;28.13;98994.63;432748;1273;142854;-61
2022/06/19 10:49:09;;;;;;;5.00;2.20;;;;;;;33.09;28.44;98979.92;431527;1273;141446;-60
2022/06/19 10:59:32;;;;;;;4.10;1.60;;;;;;;32.77;28.41;98974.67;429454;1273;143631;-62
2022/06/19 11:09:57;;;;;;;4.00;1.70;;;;;;;32.69;28.97;98965.56;430272;1273;142036;-62
2022/06/19 11:20:27;;;;;;;6.50;1.80;;;;;;;32.61;29.14;98961.04;430580;1273;143129;-63
2022/06/19 11:30:51;;;;;;;5.00;1.40;;;;;;;32.65;29.61;98953.63;430261;1273;142301;-61
2022/06/19 11:41:25;;;;;;;2.70;1.50;;;;;;;32.39;29.63;98950.64;430283;1273;164880;-62
2022/06/19 11:51:47;;;;;;;4.90;1.80;;;;;;;32.13;29.78;98937.56;430941;1273;142220;-59
2022/06/19 12:02:25;;;;;;;5.90;2.10;;;;;;;31.90;30.35;98929.68;429907;1273;142174;-61
2022/06/19 12:12:53;;;;;;;6.40;2.10;;;;;;;31.78;30.35;98923.30;429952;1273;142461;-62
2022/06/19 12:23:18;;;;;;;3.30;1.30;;;;;;;31.70;30.56;98910.52;429257;1273;148909;-63
2022/06/19 12:33:45;;;;;;;5.10;2.30;;;;;;;31.50;30.62;98899.11;430194;1273;144870;-62
2022/06/19 12:44:22;;;;;;;4.80;1.60;;;;;;;31.42;31.33;98891.20;430200;1273;141531;-61
2022/06/19 12:55:06;;;;;;;4.60;1.70;;;;;;;31.36;31.34;98874.44;430485;1274;143176;-62
2022/06/19 13:05:45;;;;;;;3.10;1.50;;;;;;;31.20;31.52;98858.23;430396;1273;142241;-62
2022/06/19 13:16:12;;;;;;;5.30;2.40;;;;;;;31.25;31.51;98841.13;430815;1273;143030;-61
2022/06/19 13:37:31;;;;;;;4.20;1.40;;;;;;;31.22;31.54;98805.34;430288;1273;142449;-61
2022/06/19 13:48:00;;;;;;;4.40;2.00;;;;;;;31.16;31.02;98782.66;430072;1273;143141;-63
2022/06/19 13:58:32;;;;;;;5.40;1.50;;;;;;;30.92;30.62;98771.10;430126;1273;146866;-59
2022/06/19 14:09:11;;;;;;;6.60;1.60;;;;;;;30.89;30.73;98758.39;430372;1272;144160;-62
2022/06/19 14:19:43;;;;;;;8.50;1.90;;;;;;;30.81;30.23;98749.69;431361;1272;141503;-62
2022/06/19 14:30:10;;;;;;;7.00;1.70;;;;;;;30.64;29.89;98738.67;432478;1272;145317;-62
2022/06/19 14:40:57;;;;;;;7.20;1.90;;;;;;;30.47;29.57;98731.61;433015;1273;142384;-61
2022/06/19 14:51:29;;;;;;;4.80;1.60;;;;;;;30.45;29.94;98711.23;429976;1272;142261;-59
2022/06/19 15:01:54;;;;;;;15.70;3.50;;;;;;;30.43;30.44;98687.38;431952;1273;147118;-61
2022/06/19 15:12:25;;;;;;;9.30;2.10;;;;;;;30.32;30.54;98679.06;430156;1273;211567;-62
2022/06/19 15:23:14;;;;;;;8.00;2.00;;;;;;;30.27;30.87;98667.94;431160;1273;146110;-61
2022/06/19 15:33:44;;;;;;;8.20;2.30;;;;;;;30.22;30.72;98651.05;446038;1272;142525;-62
2022/06/19 15:44:50;;;;;;;8.70;2.80;;;;;;;30.10;30.41;98654.91;433581;1273;146790;-61
2022/06/19 15:55:22;;;;;;;10.60;2.90;;;;;;;29.98;30.75;98676.36;430184;1272;142158;-60
2022/06/19 16:05:44;;;;;;;11.80;2.90;;;;;;;29.85;31.04;98678.27;431905;1273;145257;-61
2022/06/19 16:16:17;;;;;;;11.20;2.60;;;;;;;29.72;31.12;98674.41;430399;1273;142333;-59
2022/06/19 16:26:41;;;;;;;7.50;2.90;;;;;;;29.58;31.15;98652.72;429467;1273;142314;-61
2022/06/19 16:47:47;;;;;;;7.50;2.50;;;;;;;29.30;31.79;98648.95;429828;1272;142207;-62
2022/06/19 16:58:12;;;;;;;7.50;2.80;;;;;;;29.15;32.64;98633.04;432319;1273;141428;-62
2022/06/19 17:08:43;;;;;;;10.30;2.90;;;;;;;28.97;32.61;98626.94;430500;1273;146462;-61
2022/06/19 17:19:16;;;;;;;8.40;2.00;;;;;;;28.75;32.74;98627.53;431349;1273;145167;-62
2022/06/19 17:29:45;;;;;;;6.70;2.40;;;;;;;28.77;32.78;98624.71;429862;1273;142287;-62
2022/06/19 17:40:17;;;;;;;6.40;1.90;;;;;;;28.36;33.17;98620.90;430359;1273;141688;-63
2022/06/19 17:50:43;;;;;;;4.90;2.40;;;;;;;27.97;34.01;98607.44;430439;1272;146929;-61
2022/06/19 18:01:14;;;;;;;3.70;2.00;;;;;;;27.72;34.19;98614.08;430149;1273;142805;-62
2022/06/19 18:11:41;;;;;;;7.30;1.80;;;;;;;27.59;34.66;98629.35;429706;1273;141522;-61
2022/06/19 18:22:03;;;;;;;3.20;1.70;;;;;;;27.04;35.40;98623.09;430524;1273;147253;-62
2022/06/19 18:32:28;;;;;;;3.50;1.80;;;;;;;26.62;35.88;98618.52;430488;1273;142741;-61
2022/06/19 18:42:49;;;;;;;7.80;1.80;;;;;;;26.22;36.63;98614.09;430532;1273;197263;-61
2022/06/19 18:53:17;;;;;;;7.10;2.40;;;;;;;25.85;37.33;98604.17;429707;1273;146944;-62
2022/06/19 19:03:39;;;;;;;5.50;1.80;;;;;;;25.45;37.91;98599.76;430891;1273;142573;-66
2022/06/19 19:14:02;;;;;;;6.50;2.20;;;;;;;25.09;38.33;98604.02;430075;1273;143161;-62
2022/06/19 19:24:24;;;;;;;3.40;1.80;;;;;;;24.75;39.00;98600.56;430704;1273;140766;-62
2022/06/19 19:34:46;;;;;;;4.90;1.60;;;;;;;24.48;39.38;98605.04;431522;1272;146873;-61
2022/06/19 19:45:11;;;;;;;4.60;3.10;;;;;;;24.21;39.67;98610.99;430252;1273;141946;-62
2022/06/19 19:55:32;;;;;;;4.00;1.80;;;;;;;23.95;40.11;98622.42;430802;1273;141825;-62
2022/06/19 20:16:35;;;;;;;2.10;1.90;;;;;;;23.48;41.31;98647.17;430665;1272;141379;-63
2022/06/19 20:27:01;;;;;;;2.20;1.50;;;;;;;23.29;41.61;98675.58;432544;1273;147075;-64
2022/06/19 20:37:24;;;;;;;5.60;2.10;;;;;;;23.12;42.07;98673.00;431152;1273;141013;-63
2022/06/19 20:47:49;;;;;;;3.10;1.60;;;;;;;22.91;42.43;98685.88;430484;1273;147063;-62
2022/06/19 20:58:14;;;;;;;5.40;2.10;;;;;;;22.68;43.27;98695.67;431294;1272;140323;-62
2022/06/19 21:08:35;;;;;;;3.90;2.70;;;;;;;22.46;43.96;98688.90;432674;1273;146926;-62
2022/06/19 21:18:57;;;;;;;8.40;2.50;;;;;;;22.29;44.40;98697.55;431249;1273;141988;-63
2022/06/19 21:29:23;;;;;;;5.70;2.20;;;;;;;22.19;44.58;98721.25;432005;1273;141808;-65
2022/06/19 21:39:45;;;;;;;3.30;2.20;;;;;;;22.03;45.06;98728.42;431294;1273;145545;-63
2022/06/19 21:50:10;;;;;;;5.80;2.60;;;;;;;21.83;45.93;98758.20;430281;1273;143960;-62
2022/06/19 22:00:34;;;;;;;4.60;2.20;;;;;;;21.74;46.30;98763.76;431798;1273;141206;-61
2022/06/19 22:21:36;;;;;;;2.90;2.20;;;;;;;21.17;48.03;98747.55;430781;1273;142212;-61
2022/06/19 22:31:58;;;;;;;6.80;3.00;;;;;;;20.85;48.46;98734.40;432139;1272;142924;-61
2022/06/19 22:42:21;;;;;;;5.10;2.30;;;;;;;20.65;49.06;98730.78;430634;1271;142260;-61
2022/06/19 22:52:42;;;;;;;10.60;3.40;;;;;;;20.48;49.67;98722.28;430512;1273;142072;-62
2022/06/19 23:03:06;;;;;;;4.40;2.50;;;;;;;20.32;50.52;98717.99;437358;1272;146891;-62
2022/06/19 23:13:28;;;;;;;3.50;2.50;;;;;;;20.14;51.01;98720.80;447481;1272;141407;-62
2022/06/19 23:23:49;;;;;;;6.30;3.10;;;;;;;20.08;51.25;98717.86;432972;1273;196371;-62
2022/06/19 23:34:11;;;;;;;7.90;3.10;;;;;;;19.96;51.95;98713.85;447474;1273;143919;-61
2022/06/19 23:44:34;;;;;;;4.00;3.10;;;;;;;19.83;52.32;98709.77;444086;1273;143742;-62
2022/06/19 23:54:56;;;;;;;4.20;2.70;;;;;;;19.74;52.73;98683.36;436333;1273;141378;-63
